Time;durP1;ratioP1;P1;durP2;ratioP2;P2;SDS_P1;SDS_P2;PMS_P1;PMS_P2;Temp;Humidity;BMP_temperature;BMP_pressure;BME280_temperature;BME280_humidity;BME280_pressure;Samples;Min_cycle;Max_cycle;Signal;HPM_P1;HPM_P2
2022/05/17 00:00:54;;;;;;;;;4.00;4.00;;;;;20.08;100.00;101538.13;6221395;22;44802;-84
2022/05/17 00:03:20;;;;;;;;;8.75;6.75;;;;;20.06;100.00;101540.94;6226363;22;44933;-88
2022/05/17 00:05:47;;;;;;;;;5.00;5.00;;;;;20.03;100.00;101544.78;6195260;22;45141;-85
2022/05/17 00:08:13;;;;;;;;;8.00;5.20;;;;;20.02;100.00;101528.75;6196036;22;44830;-86
2022/05/17 00:10:40;;;;;;;;;8.60;7.20;;;;;19.99;100.00;101535.28;6225958;22;45109;-86
2022/05/17 00:13:05;;;;;;;;;8.00;6.40;;;;;19.97;100.00;101545.38;6198550;22;44755;-85
2022/05/17 00:15:33;;;;;;;;;10.00;8.25;;;;;19.94;100.00;101537.56;6197324;22;45245;-85
2022/05/17 00:18:00;;;;;;;;;11.00;6.20;;;;;19.93;100.00;101540.41;6227303;22;44791;-86
2022/05/17 00:20:26;;;;;;;;;7.40;7.00;;;;;19.89;100.00;101529.06;6206522;22;44736;-88
2022/05/17 00:22:53;;;;;;;;;8.20;6.20;;;;;19.88;100.00;101526.50;6228791;22;45352;-86
2022/05/17 00:25:22;;;;;;;;;8.20;6.40;;;;;19.88;100.00;101529.19;6203148;22;46102;-86
2022/05/17 00:27:47;;;;;;;;;6.00;6.00;;;;;19.85;100.00;101526.78;6230781;22;44734;-86
2022/05/17 00:30:13;;;;;;;;;7.00;7.00;;;;;19.84;100.00;101530.47;6210331;22;44616;-86
2022/05/17 00:32:39;;;;;;;;;8.00;6.75;;;;;19.82;100.00;101529.75;6209550;22;45014;-85
2022/05/17 00:35:05;;;;;;;;;8.75;6.75;;;;;19.77;100.00;101516.69;6204075;22;47213;-85
2022/05/17 00:37:30;;;;;;;;;8.75;5.75;;;;;19.76;100.00;101515.84;6198682;22;45273;-85
2022/05/17 00:39:56;;;;;;;;;7.00;7.00;;;;;19.75;100.00;101518.69;6201418;22;45220;-86
2022/05/17 00:42:21;;;;;;;;;5.00;5.00;;;;;19.74;100.00;101522.41;6199730;22;44762;-88
2022/05/17 00:44:47;;;;;;;;;7.25;5.00;;;;;19.73;100.00;101518.84;6229619;22;45255;-88
2022/05/17 00:47:31;;;;;;;;;7.75;7.25;;;;;19.72;100.00;101517.13;6197370;22;45263;-86
2022/05/17 00:50:10;;;;;;;;;5.00;5.00;;;;;19.68;100.00;101521.13;6225590;22;44710;-88
2022/05/17 00:52:47;;;;;;;;;7.00;6.60;;;;;19.65;100.00;101516.00;6221348;22;44655;-89
2022/05/17 00:55:20;;;;;;;;;6.00;6.00;;;;;19.61;100.00;101522.69;6194979;22;46802;-89
2022/05/17 00:58:00;;;;;;;;;7.20;6.40;;;;;19.55;100.00;101512.44;6223236;22;44609;-87
2022/05/17 01:00:31;;;;;;;;;9.20;6.40;;;;;19.51;100.00;101511.88;6222291;22;44777;-89
2022/05/17 01:03:06;;;;;;;;;6.60;5.60;;;;;19.51;100.00;101516.41;6220883;22;44558;-87
2022/05/17 01:05:38;;;;;;;;;7.60;6.40;;;;;19.48;100.00;101516.69;6192747;22;47209;-87
2022/05/17 01:08:04;;;;;;;;;6.60;5.00;;;;;19.45;100.00;101512.44;6196976;22;44750;-86
2022/05/17 01:10:32;;;;;;;;;8.00;6.00;;;;;19.43;100.00;101518.94;6197797;22;44782;-87
2022/05/17 01:15:43;;;;;;;;;5.40;5.20;;;;;19.39;100.00;101507.63;6221743;22;44911;-87
2022/05/17 01:18:10;;;;;;;;;6.20;6.20;;;;;19.35;100.00;101503.50;6220743;22;44845;-87
2022/05/17 01:20:35;;;;;;;;;3.20;3.20;;;;;19.32;100.00;101506.47;6218438;22;45192;-85
2022/05/17 01:23:01;;;;;;;;;5.50;5.50;;;;;19.30;100.00;101504.91;6225871;22;45357;-87
2022/05/17 01:25:28;;;;;;;;;5.25;5.25;;;;;19.24;100.00;101499.09;6225417;22;47216;-87
2022/05/17 01:28:16;;;;;;;;;8.00;6.00;;;;;19.24;100.00;101495.53;6239145;22;44987;-89
2022/05/17 01:30:43;;;;;;;;;7.20;6.20;;;;;19.21;100.00;101499.38;6248339;22;44718;-91
2022/05/17 01:33:18;;;;;;;;;6.20;6.20;;;;;19.19;100.00;101503.19;6297115;22;44868;-90
2022/05/17 01:35:44;;;;;;;;;6.60;4.20;;;;;19.16;100.00;101503.47;6266534;22;46394;-92
2022/05/17 01:38:13;;;;;;;;;8.00;6.80;;;;;19.14;100.00;101505.44;6266404;22;45195;-91
2022/05/17 01:40:39;;;;;;;;;10.80;6.80;;;;;19.12;100.00;101508.28;6271737;22;44678;-91
2022/05/17 01:43:10;;;;;;;;;6.80;6.80;;;;;19.09;100.00;101513.09;6241835;22;44921;-92
2022/05/17 01:45:37;;;;;;;;;8.80;7.60;;;;;19.06;100.00;101506.16;6290598;22;45197;-91
2022/05/17 01:48:03;;;;;;;;;6.60;6.60;;;;;19.07;100.00;101507.00;6289729;22;44582;-91
2022/05/17 01:50:30;;;;;;;;;4.80;4.80;;;;;19.04;100.00;101507.28;6267875;22;44716;-91
2022/05/17 01:52:55;;;;;;;;;8.60;7.00;;;;;19.00;100.00;101504.88;6266904;22;44806;-90
2022/05/17 01:55:23;;;;;;;;;7.00;5.80;;;;;18.97;100.00;101502.44;6263765;22;46200;-91
2022/05/17 01:57:56;;;;;;;;;6.40;5.60;;;;;18.95;100.00;101504.44;6260020;22;44584;-91
2022/05/17 02:00:23;;;;;;;;;9.00;8.00;;;;;18.92;100.00;101503.84;6292954;22;44657;-92
2022/05/17 02:02:51;;;;;;;;;8.20;7.00;;;;;18.89;100.00;101501.44;6268710;22;44813;-91
2022/05/17 02:05:24;;;;;;;;;8.80;8.80;;;;;18.86;100.00;101501.72;6237976;22;45288;-91
2022/05/17 02:07:51;;;;;;;;;7.40;6.40;;;;;18.86;100.00;101504.41;6238533;22;44804;-87
2022/05/17 02:10:20;;;;;;;;;6.00;6.00;;;;;18.86;100.00;101517.88;6246551;22;44626;-88
2022/05/17 02:12:46;;;;;;;;;9.00;7.80;;;;;18.85;100.00;101526.91;6245422;22;44933;-90
2022/05/17 02:15:12;;;;;;;;;6.00;6.00;;;;;18.85;100.00;101524.22;6272141;22;46626;-90
2022/05/17 02:17:39;;;;;;;;;6.80;4.60;;;;;18.86;100.00;101510.66;6303521;22;44665;-91
2022/05/17 02:20:07;;;;;;;;;6.80;6.00;;;;;18.91;100.00;101521.00;6299139;22;44553;-89
2022/05/17 02:22:36;;;;;;;;;9.60;7.20;;;;;18.90;100.00;101517.44;6270124;22;44837;-90
2022/05/17 02:25:08;;;;;;;;;8.00;6.80;;;;;18.94;100.00;101521.56;6272206;22;46551;-91
2022/05/17 02:27:34;;;;;;;;;9.40;6.80;;;;;18.93;100.00;101521.72;6247792;22;44768;-89
2022/05/17 02:30:00;;;;;;;;;7.40;5.60;;;;;18.94;100.00;101518.03;6297177;22;44802;-91
2022/05/17 02:32:26;;;;;;;;;6.75;6.75;;;;;18.94;100.00;101518.03;6269307;22;44888;-90
2022/05/17 02:34:53;;;;;;;;;10.50;7.50;;;;;18.97;100.00;101534.75;6218485;22;45560;-92
2022/05/17 02:37:20;;;;;;;;;4.60;4.60;;;;;18.96;100.00;101533.06;6242648;22;44628;-88
2022/05/17 02:39:46;;;;;;;;;6.40;5.60;;;;;18.97;100.00;101525.84;6292933;22;44767;-90
2022/05/17 02:42:12;;;;;;;;;5.00;5.00;;;;;18.99;100.00;101518.47;6262114;22;44849;-89
2022/05/17 02:45:18;;;;;;;;;5.40;5.40;;;;;19.00;100.00;101530.94;6268060;22;45113;-90
2022/05/17 02:47:44;;;;;;;;;8.60;6.40;;;;;19.00;100.00;101530.94;6266354;22;44669;-89
2022/05/17 02:50:11;;;;;;;;;4.00;3.00;;;;;19.00;100.00;101520.16;6291540;22;44756;-90
2022/05/17 02:52:39;;;;;;;;;6.80;6.00;;;;;19.01;100.00;101532.66;6262808;22;44815;-87
2022/05/17 02:55:05;;;;;;;;;6.80;6.40;;;;;19.00;100.00;101522.84;6265451;22;45194;-89
2022/05/17 02:57:32;;;;;;;;;5.20;5.20;;;;;19.00;100.00;101534.50;6289162;22;44554;-91
2022/05/17 02:59:59;;;;;;;;;5.40;5.40;;;;;19.01;100.00;101529.97;6235192;22;44733;-89
2022/05/17 03:02:26;;;;;;;;;5.60;5.60;;;;;18.99;100.00;101527.38;6260488;22;44841;-89
2022/05/17 03:04:52;;;;;;;;;6.20;6.20;;;;;18.98;100.00;101528.38;6261879;22;45132;-89
2022/05/17 03:07:17;;;;;;;;;6.50;6.00;;;;;18.98;100.00;101523.00;6264215;22;44760;-91
2022/05/17 03:09:45;;;;;;;;;5.80;5.80;;;;;18.97;100.00;101525.84;6283491;22;45452;-92
2022/05/17 03:12:11;;;;;;;;;7.75;6.25;;;;;18.94;100.00;101524.25;6260537;22;44789;-89
2022/05/17 03:14:38;;;;;;;;;6.50;6.50;;;;;18.93;100.00;101527.09;6264002;22;45053;-91
2022/05/17 03:17:16;;;;;;;;;6.40;6.40;;;;;18.89;100.00;101518.44;6272137;22;44750;-89
2022/05/17 03:19:42;;;;;;;;;5.80;5.60;;;;;18.86;100.00;101510.66;6300059;22;44645;-88
2022/05/17 03:22:08;;;;;;;;;7.25;5.00;;;;;18.80;100.00;101507.63;6261819;22;44864;-90
2022/05/17 03:24:53;;;;;;;;;6.25;6.25;;;;;18.75;100.00;101516.97;6265932;22;45157;-90
2022/05/17 03:27:20;;;;;;;;;10.60;7.80;;;;;18.71;100.00;101520.94;6292958;22;44570;-90
2022/05/17 03:29:49;;;;;;;;;7.00;5.75;;;;;18.69;100.00;101522.91;6268152;22;44799;-90
2022/05/17 03:32:15;;;;;;;;;7.40;6.40;;;;;18.65;100.00;101513.38;6267451;22;44859;-88
2022/05/17 03:34:41;;;;;;;;;9.00;7.00;;;;;18.63;100.00;101512.66;6292767;22;45253;-93
2022/05/17 03:37:07;;;;;;;;;6.75;6.75;;;;;18.61;100.00;101517.31;6265261;22;44703;-90
2022/05/17 03:39:53;;;;;;;;;10.00;8.00;;;;;18.56;100.00;101516.88;6274075;22;44741;-91
2022/05/17 03:42:20;;;;;;;;;5.60;5.60;;;;;18.55;100.00;101517.00;6303375;22;44949;-91
2022/05/17 03:44:49;;;;;;;;;7.00;7.00;;;;;18.52;100.00;101518.16;6227556;22;44964;-90
2022/05/17 03:47:14;;;;;;;;;7.00;7.00;;;;;18.49;100.00;101515.72;6271514;22;44758;-89
2022/05/17 03:49:40;;;;;;;;;12.00;7.40;;;;;18.42;100.00;101517.22;6270401;22;44770;-89
2022/05/17 03:52:08;;;;;;;;;7.25;7.25;;;;;18.39;100.00;101518.38;6270087;22;44935;-88
2022/05/17 03:54:35;;;;;;;;;7.60;7.60;;;;;18.38;100.00;101526.59;6294472;22;45202;-89
2022/05/17 03:57:01;;;;;;;;;8.80;5.80;;;;;18.31;100.00;101518.16;6294691;22;44489;-91
2022/05/17 03:59:26;;;;;;;;;7.50;7.50;;;;;18.28;100.00;101523.00;6270644;22;44798;-88
2022/05/17 04:01:52;;;;;;;;;8.00;8.00;;;;;18.27;100.00;101526.63;6265645;22;44880;-89
2022/05/17 04:04:17;;;;;;;;;9.00;7.75;;;;;18.23;100.00;101524.25;6292464;22;45037;-89
2022/05/17 04:06:49;;;;;;;;;8.25;8.25;;;;;18.17;100.00;101519.38;6240399;22;44723;-88
2022/05/17 04:09:15;;;;;;;;;6.40;6.40;;;;;18.16;100.00;101525.72;6266410;22;44690;-88
2022/05/17 04:11:40;;;;;;;;;7.75;7.75;;;;;18.14;100.00;101521.50;6264558;22;44867;-89
2022/05/17 04:14:06;;;;;;;;;7.00;7.00;;;;;18.11;100.00;101533.34;6269421;22;46823;-85
2022/05/17 04:16:39;;;;;;;;;9.00;8.20;;;;;18.11;100.00;101527.97;6301272;22;44560;-87
2022/05/17 04:19:06;;;;;;;;;11.60;9.40;;;;;18.08;100.00;101527.38;6248033;22;44794;-88
2022/05/17 04:21:33;;;;;;;;;7.20;6.60;;;;;18.07;100.00;101523.84;6273370;22;44745;-88
2022/05/17 04:24:01;;;;;;;;;6.80;5.00;;;;;18.08;100.00;101520.16;6303413;22;45075;-91
2022/05/17 04:26:26;;;;;;;;;11.20;8.40;;;;;18.10;100.00;101520.91;6276114;22;44663;-89
2022/05/17 04:28:52;;;;;;;;;7.75;7.75;;;;;18.11;100.00;101527.13;6300766;22;44697;-87
2022/05/17 04:31:18;;;;;;;;;8.00;8.00;;;;;18.14;100.00;101524.19;6300767;22;44785;-88
2022/05/17 04:33:43;;;;;;;;;7.75;7.75;;;;;18.15;100.00;101528.56;6242860;22;45199;-90
2022/05/17 04:36:10;;;;;;;;;7.25;7.25;;;;;18.17;100.00;101532.81;6264891;22;44662;-88
2022/05/17 04:38:37;;;;;;;;;7.60;7.20;;;;;18.19;100.00;101536.25;6258047;22;44989;-89
2022/05/17 04:41:03;;;;;;;;;9.00;8.20;;;;;18.19;100.00;101543.47;6265592;22;45549;-90
2022/05/17 04:43:29;;;;;;;;;8.20;7.00;;;;;18.24;100.00;101538.53;6301659;22;45056;-90
2022/05/17 04:46:48;;;;;;;;;11.40;8.20;;;;;18.31;100.00;101539.69;6275118;22;44717;-89
2022/05/17 04:49:13;;;;;;;;;9.60;8.20;;;;;18.40;100.00;101536.22;6273204;22;45152;-90
2022/05/17 04:51:39;;;;;;;;;11.50;9.00;;;;;18.49;100.00;101540.78;6296530;22;44924;-89
2022/05/17 04:54:04;;;;;;;;;12.00;7.75;;;;;18.57;100.00;101548.19;6266288;22;44985;-89
2022/05/17 04:56:30;;;;;;;;;10.75;9.00;;;;;18.66;100.00;101549.19;6293974;22;44570;-89
2022/05/17 04:59:01;;;;;;;;;9.75;8.25;;;;;18.74;100.00;101539.50;6272522;22;44614;-90
2022/05/17 05:01:29;;;;;;;;;9.60;9.20;;;;;18.86;100.00;101551.03;6299995;22;44777;-91
2022/05/17 05:03:56;;;;;;;;;8.80;8.40;;;;;19.03;100.00;101551.34;6268016;22;46604;-91
2022/05/17 05:06:21;;;;;;;;;8.00;8.00;;;;;19.20;100.00;101548.84;6267484;22;44616;-90
2022/05/17 05:08:46;;;;;;;;;9.50;8.50;;;;;19.44;100.00;101542.22;6265070;22;44537;-88
2022/05/17 05:11:13;;;;;;;;;10.20;8.20;;;;;19.65;100.00;101542.97;6289774;22;44888;-89
2022/05/17 05:13:59;;;;;;;;;9.40;7.40;;;;;19.89;100.00;101553.31;6261867;22;46666;-89
2022/05/17 05:19:48;;;;;;;;;10.60;9.00;;;;;20.44;100.00;101558.03;6291017;22;44737;-79
2022/05/17 05:22:15;;;;;;;;;8.25;8.25;;;;;20.64;100.00;101564.25;6289350;22;44689;-92
2022/05/17 05:24:40;;;;;;;;;13.60;7.40;;;;;20.77;100.00;101554.81;6240358;22;46783;-93
2022/05/17 05:27:12;;;;;;;;;7.50;7.50;;;;;20.92;100.00;101565.13;6263982;22;44666;-92
2022/05/17 05:29:38;;;;;;;;;7.80;7.80;;;;;21.14;100.00;101570.13;6291417;22;44717;-93
2022/05/17 05:32:04;;;;;;;;;7.20;7.20;;;;;21.35;100.00;101563.63;6269170;22;44829;-91
2022/05/17 05:34:30;;;;;;;;;9.50;6.25;;;;;21.51;100.00;101569.19;6270726;22;45323;-93
2022/05/17 05:36:57;;;;;;;;;10.75;6.25;;;;;21.68;100.00;101567.53;6241291;22;44741;-93
2022/05/17 05:39:23;;;;;;;;;7.80;7.80;;;;;21.84;100.00;101559.53;6271047;22;44605;-91
2022/05/17 05:41:48;;;;;;;;;3.00;3.00;;;;;22.03;100.00;101559.34;6264142;22;44906;-92
2022/05/17 05:44:16;;;;;;;;;7.60;7.60;;;;;22.19;100.00;101566.81;6283560;22;45218;-92
2022/05/17 05:46:43;;;;;;;;;6.60;6.40;;;;;22.23;100.00;101565.44;6264934;22;44713;-92
2022/05/17 05:49:10;;;;;;;;;8.60;7.80;;;;;22.34;100.00;101569.78;6269245;22;44777;-92
2022/05/17 05:51:36;;;;;;;;;9.00;8.20;;;;;22.47;100.00;101572.03;6300756;22;44852;-93
2022/05/17 05:54:03;;;;;;;;;10.40;8.40;;;;;22.60;100.00;101572.47;6276476;22;45026;-92
2022/05/17 05:56:30;;;;;;;;;11.00;8.60;;;;;22.79;100.00;101576.81;6273526;22;44528;-92
2022/05/17 05:58:56;;;;;;;;;10.60;8.40;;;;;22.90;100.00;101579.25;6275007;22;44605;-90
2022/05/17 06:01:21;;;;;;;;;8.75;6.75;;;;;22.88;100.00;101573.13;6299350;22;44880;-90
2022/05/17 06:03:47;;;;;;;;;9.50;9.00;;;;;22.84;100.00;101583.44;6271967;22;44899;-90
2022/05/17 06:06:16;;;;;;;;;8.40;8.20;;;;;22.99;100.00;101586.41;6264481;22;44725;-90
2022/05/17 06:08:41;;;;;;;;;9.60;8.60;;;;;23.17;100.00;101586.31;6266171;22;44671;-91
2022/05/17 06:11:07;;;;;;;;;11.00;9.25;;;;;23.31;100.00;101585.69;6266463;22;44821;-91
2022/05/17 06:13:33;;;;;;;;;9.25;8.25;;;;;23.45;100.00;101580.59;6268517;22;44912;-93
2022/05/17 06:15:58;;;;;;;;;10.20;8.40;;;;;23.58;100.00;101581.81;6266734;22;44647;-92
2022/05/17 06:18:24;;;;;;;;;10.75;8.50;;;;;23.78;100.00;101590.53;6276597;22;44723;-92
2022/05/17 06:20:52;;;;;;;;;9.50;9.50;;;;;23.94;100.00;101581.56;6277542;22;44788;-91
2022/05/17 06:23:18;;;;;;;;;9.80;9.20;;;;;24.11;100.00;101582.38;6300680;22;45010;-91
2022/05/17 06:25:44;;;;;;;;;8.40;8.40;;;;;24.16;100.00;101580.00;6304755;22;44674;-93
2022/05/17 06:28:10;;;;;;;;;11.75;10.75;;;;;24.23;100.00;101588.34;6303294;22;44743;-90
2022/05/17 06:30:38;;;;;;;;;11.00;8.80;;;;;24.31;100.00;101582.88;6303784;22;44657;-90
2022/05/17 06:33:12;;;;;;;;;10.20;7.40;;;;;24.29;100.00;101585.78;6275863;22;45304;-91
2022/05/17 06:35:39;;;;;;;;;11.20;9.40;;;;;24.43;100.00;101578.84;6300754;22;44704;-91
2022/05/17 06:38:05;;;;;;;;;12.40;9.80;;;;;24.63;100.00;101575.72;6276548;22;44658;-89
2022/05/17 06:40:31;;;;;;;;;5.80;4.00;;;;;24.81;100.00;101573.63;6301391;22;44733;-88
2022/05/17 06:42:56;;;;;;;;;14.20;10.20;;;;;24.99;100.00;101576.94;6298237;22;45100;-90
2022/05/17 06:45:22;;;;;;;;;13.75;11.25;;;;;25.16;100.00;101576.91;6260467;22;44737;-90
2022/05/17 06:47:47;;;;;;;;;6.25;5.75;;;;;25.28;100.00;101562.72;6261169;22;44830;-88
2022/05/17 06:50:13;;;;;;;;;9.50;8.00;;;;;25.43;100.00;101572.81;6287902;22;44717;-89
2022/05/17 06:52:38;;;;;;;;;10.50;9.25;;;;;25.53;100.00;101570.72;6284767;22;44985;-90
2022/05/17 06:55:04;;;;;;;;;11.50;9.25;;;;;25.60;100.00;101568.97;6283976;22;44707;-89
2022/05/17 06:57:30;;;;;;;;;13.20;9.00;;;;;25.73;100.00;101573.84;6281138;22;44772;-88
2022/05/17 06:59:55;;;;;;;;;10.75;8.00;;;;;25.82;100.00;101579.06;6282132;22;44759;-87
2022/05/17 07:02:21;;;;;;;;;10.50;10.50;;;;;25.90;100.00;101569.97;6277894;22;44955;-88
2022/05/17 07:04:46;;;;;;;;;14.25;9.75;;;;;26.04;100.00;101573.75;6283366;22;44741;-89
2022/05/17 07:07:11;;;;;;;;;13.00;12.00;;;;;26.11;100.00;101572.00;6289805;22;45091;-89
2022/05/17 07:09:37;;;;;;;;;11.00;11.00;;;;;26.28;100.00;101578.13;6292244;22;44871;-89
2022/05/17 07:14:49;;;;;;;;;10.60;10.00;;;;;26.43;100.00;101565.41;6291510;22;44619;-88
2022/05/17 07:17:19;;;;;;;;;11.20;9.80;;;;;26.55;100.00;101572.09;6288642;22;44658;-86
2022/05/17 07:19:45;;;;;;;;;13.80;10.80;;;;;26.58;100.00;101573.59;6280335;22;44864;-86
2022/05/17 07:22:11;;;;;;;;;8.40;8.40;;;;;26.58;100.00;101566.25;6258728;22;45193;-89
2022/05/17 07:24:38;;;;;;;;;9.50;9.50;;;;;26.58;100.00;101577.16;6252948;22;44735;-90
2022/05/17 07:27:05;;;;;;;;;14.00;11.00;;;;;26.56;100.00;101570.22;6277535;22;44727;-83
2022/05/17 07:29:35;;;;;;;;;10.40;9.00;;;;;26.58;100.00;101563.53;6248117;22;45219;-90
2022/05/17 07:32:01;;;;;;;;;10.60;9.40;;;;;26.55;100.00;101566.66;6285600;22;46147;-90
2022/05/17 07:34:27;;;;;;;;;13.60;11.00;;;;;26.58;100.00;101568.13;6258852;22;44666;-90
2022/05/17 07:36:53;;;;;;;;;9.60;9.60;;;;;26.64;100.00;101564.66;6253002;22;44702;-83
2022/05/17 07:39:19;;;;;;;;;9.60;9.60;;;;;26.67;98.73;101582.53;6276899;22;44917;-84
2022/05/17 07:41:44;;;;;;;;;9.50;8.75;;;;;26.64;98.89;101579.16;6259635;22;45154;-88
2022/05/17 07:44:11;;;;;;;;;9.75;9.75;;;;;26.60;97.60;101571.53;6252564;22;44796;-85
2022/05/17 07:46:37;;;;;;;;;12.20;8.40;;;;;26.63;98.78;101576.59;6279473;22;44708;-89
2022/05/17 07:49:02;;;;;;;;;15.00;9.25;;;;;26.61;98.94;101573.22;6285038;22;45316;-90
2022/05/17 07:51:28;;;;;;;;;11.50;10.75;;;;;26.59;100.00;101569.81;6285671;22;45029;-83
2022/05/17 07:53:55;;;;;;;;;11.00;9.00;;;;;26.40;93.25;101574.78;6281106;22;45321;-89
2022/05/17 07:56:20;;;;;;;;;8.40;7.00;;;;;26.36;90.06;101580.78;6293561;22;44740;-88
2022/05/17 07:58:46;;;;;;;;;11.00;9.50;;;;;26.28;89.80;101581.69;6280769;22;44788;-84
2022/05/17 08:01:12;;;;;;;;;9.25;8.25;;;;;26.08;92.48;101577.81;6284447;22;45173;-84
2022/05/17 08:03:38;;;;;;;;;8.60;8.60;;;;;26.18;95.03;101572.94;6277627;22;44820;-89
2022/05/17 08:06:03;;;;;;;;;9.00;7.25;;;;;26.29;96.89;101574.38;6277311;22;45254;-83
2022/05/17 08:08:29;;;;;;;;;16.75;10.25;;;;;26.33;97.29;101578.44;6288402;22;44801;-88
2022/05/17 08:10:54;;;;;;;;;11.00;10.25;;;;;26.42;96.96;101574.59;6253346;22;45171;-88
2022/05/17 08:13:22;;;;;;;;;11.60;11.00;;;;;26.39;97.04;101575.78;6278490;22;44689;-89
2022/05/17 08:15:48;;;;;;;;;11.00;9.00;;;;;26.46;97.81;101569.66;6248030;22;44793;-84
2022/05/17 08:18:15;;;;;;;;;9.20;8.80;;;;;26.42;96.97;101569.13;6280474;22;45177;-88
2022/05/17 08:20:44;;;;;;;;;10.00;9.00;;;;;26.37;98.32;101566.97;6249438;22;45313;-88
2022/05/17 08:23:09;;;;;;;;;13.20;9.60;;;;;26.42;97.69;101566.41;6279283;22;44737;-88
2022/05/17 08:28:23;;;;;;;;;9.80;9.40;;;;;26.54;96.84;101570.38;6211357;22;44792;-85
2022/05/17 08:30:49;;;;;;;;;11.25;9.50;;;;;26.52;97.99;101567.00;6211317;22;45405;-88
2022/05/17 08:33:17;;;;;;;;;9.00;7.50;;;;;26.59;95.63;101567.09;6219389;22;44766;-84
2022/05/17 08:35:49;;;;;;;;;11.60;8.00;;;;;26.66;94.82;101578.97;6245393;22;44782;-90
2022/05/17 08:38:36;;;;;;;;;7.00;7.00;;;;;26.79;96.70;101570.13;6250776;22;44894;-84
2022/05/17 08:41:19;;;;;;;;;12.00;7.60;;;;;26.84;94.26;101567.69;6238164;22;45083;-85
2022/05/17 08:43:54;;;;;;;;;8.80;6.80;;;;;26.92;91.77;101571.13;6253615;22;45406;-89
2022/05/17 08:46:50;;;;;;;;;7.20;6.20;;;;;26.98;91.73;101561.38;6253851;22;44756;-84
2022/05/17 08:49:25;;;;;;;;;9.40;6.40;;;;;27.12;89.52;101552.31;6251244;22;44797;-84
2022/05/17 08:52:11;;;;;;;;;6.80;5.80;;;;;27.19;89.62;101546.94;6248654;22;45064;-84
2022/05/17 08:54:40;;;;;;;;;8.00;7.20;;;;;27.09;81.73;101562.78;6243263;22;44730;-83
2022/05/17 08:57:21;;;;;;;;;2.00;2.00;;;;;26.98;69.64;101574.13;6217145;22;45313;-83
2022/05/17 08:59:50;;;;;;;;;1.00;1.00;;;;;26.78;44.37;101588.34;6246241;22;44871;-86
2022/05/17 09:02:25;;;;;;;;;4.00;3.20;;;;;26.50;42.89;101580.00;6252901;22;45338;-84
2022/05/17 09:04:56;;;;;;;;;2.20;2.20;;;;;26.13;47.96;101570.78;6262012;22;44806;-87
2022/05/17 09:07:26;;;;;;;;;3.40;3.00;;;;;26.37;51.07;101574.31;6284914;22;44888;-85
2022/05/17 09:10:19;;;;;;;;;2.00;2.00;;;;;26.59;47.95;101567.97;6266722;22;44947;-85
2022/05/17 09:13:04;;;;;;;;;4.00;4.00;;;;;26.79;48.65;101576.44;6264787;22;45158;-87
2022/05/17 09:15:30;;;;;;;;;4.20;3.00;;;;;26.88;51.86;101571.69;6289312;22;44590;-87
2022/05/17 09:17:58;;;;;;;;;3.25;3.25;;;;;26.85;47.90;101567.47;6284729;22;44667;-89
2022/05/17 09:20:31;;;;;;;;;4.00;3.00;;;;;26.95;47.04;101572.66;6279236;22;45246;-89
2022/05/17 09:22:56;;;;;;;;;2.20;2.20;;;;;26.90;47.27;101562.31;6280359;22;45088;-86
2022/05/17 09:25:58;;;;;;;;;5.00;3.75;;;;;26.85;49.97;101563.91;6258556;22;44726;-88
2022/05/17 09:28:27;;;;;;;;;2.60;2.00;;;;;26.91;49.33;101564.00;6128730;23;44883;-88
2022/05/17 09:31:12;;;;;;;;;5.20;3.60;;;;;26.91;45.41;101568.59;6153386;23;44832;-86
2022/05/17 09:33:40;;;;;;;;;4.80;3.00;;;;;27.02;46.50;101561.81;6128016;23;45454;-88
2022/05/17 09:36:08;;;;;;;;;3.00;3.00;;;;;27.07;51.11;101557.47;6141013;23;44811;-85
2022/05/17 09:38:39;;;;;;;;;1.00;1.00;;;;;26.89;43.39;101562.50;6142595;23;44692;-88
2022/05/17 09:41:11;;;;;;;;;1.20;1.20;;;;;26.98;45.39;101553.19;6162771;23;44819;-84
2022/05/17 09:43:39;;;;;;;;;3.80;3.80;;;;;27.18;45.58;101555.34;6134181;23;46785;-84
2022/05/17 09:46:14;;;;;;;;;7.60;4.60;;;;;27.31;43.60;101559.03;6163403;23;44786;-88
2022/05/17 09:54:39;;;;;;;;;6.20;6.00;;;;;27.12;45.48;101546.00;6156769;23;44896;-87
2022/05/17 09:57:29;;;;;;;;;3.00;2.00;;;;;27.28;45.87;101550.41;6127223;23;44831;-85
2022/05/17 10:00:01;;;;;;;;;4.60;3.00;;;;;27.46;47.15;101553.53;6150295;23;45353;-84
2022/05/17 10:02:29;;;;;;;;;2.80;2.80;;;;;27.61;48.47;101551.63;6124614;23;45298;-83
2022/05/17 10:04:58;;;;;;;;;3.80;3.80;;;;;27.78;50.35;101533.09;6205595;22;44942;-84
2022/05/17 10:07:29;;;;;;;;;3.80;3.00;;;;;27.89;49.54;101548.94;6277264;22;44733;-84
2022/05/17 10:09:54;;;;;;;;;2.00;2.00;;;;;28.02;47.32;101537.28;6249610;22;44784;-85
2022/05/17 10:12:28;;;;;;;;;2.00;1.50;;;;;27.93;43.89;101546.66;6275225;22;44760;-85
2022/05/17 10:15:00;;;;;;;;;4.40;4.20;;;;;27.73;43.25;101543.75;6246174;22;47115;-84
2022/05/17 10:17:42;;;;;;;;;5.00;4.40;;;;;27.62;47.21;101545.09;6272823;22;44869;-85
2022/05/17 10:20:16;;;;;;;;;2.20;2.20;;;;;27.53;42.08;101542.69;6274571;22;45161;-85
2022/05/17 10:22:59;;;;;;;;;2.60;2.60;;;;;27.66;44.28;101534.66;6275401;22;44717;-84
2022/05/17 10:25:49;;;;;;;;;1.20;1.20;;;;;27.79;43.89;101533.94;6276669;22;47536;-84
2022/05/17 10:28:33;;;;;;;;;3.40;1.40;;;;;28.01;44.79;101529.31;6260724;22;44774;-84
2022/05/17 10:31:29;;;;;;;;;3.20;0.80;;;;;28.14;44.21;101524.78;6277653;22;45214;-83
2022/05/17 10:34:20;;;;;;;;;0.40;0.40;;;;;28.22;42.32;101526.50;6252794;22;45200;-84
2022/05/17 10:36:49;;;;;;;;;1.80;1.80;;;;;28.27;42.83;101525.91;6248743;22;45337;-84
2022/05/17 10:39:33;;;;;;;;;1.40;1.00;;;;;28.21;45.96;101521.25;6276505;22;44752;-84
2022/05/17 10:42:00;;;;;;;;;2.80;2.00;;;;;28.06;46.33;101513.16;6250556;22;45334;-84
2022/05/17 10:44:39;;;;;;;;;1.40;1.40;;;;;28.20;45.62;101506.75;6249281;22;44846;-84
2022/05/17 10:47:13;;;;;;;;;2.40;2.00;;;;;28.39;45.81;101506.06;6281163;22;45035;-84
2022/05/17 10:49:53;;;;;;;;;2.20;1.80;;;;;28.47;46.64;101499.56;6284578;22;45251;-83
2022/05/17 10:52:35;;;;;;;;;3.60;2.60;;;;;28.62;49.04;101504.88;6283074;22;44784;-84
2022/05/17 10:55:17;;;;;;;;;1.80;1.80;;;;;28.64;47.57;101489.13;6276268;22;44887;-85
2022/05/17 10:58:13;;;;;;;;;3.60;2.00;;;;;28.61;46.47;101490.38;6250834;22;47037;-88
2022/05/17 11:00:47;;;;;;;;;1.40;1.40;;;;;28.44;45.85;101486.31;6251489;22;45340;-88
2022/05/17 11:03:30;;;;;;;;;3.00;3.00;;;;;28.27;45.69;101476.72;6279838;22;44753;-87
2022/05/17 11:06:18;;;;;;;;;1.60;1.60;;;;;28.26;47.64;101475.88;6278151;22;45338;-84
2022/05/17 11:08:55;;;;;;;;;3.00;3.00;;;;;28.32;47.18;101479.69;6275473;22;45037;-84
2022/05/17 11:11:59;;;;;;;;;5.60;3.60;;;;;28.54;48.98;101492.25;6279724;22;45230;-85
2022/05/17 11:14:37;;;;;;;;;3.40;2.60;;;;;28.83;51.17;101479.34;6156515;23;44801;-83
2022/05/17 11:17:27;;;;;;;;;3.60;3.40;;;;;29.08;50.18;101476.91;6157605;23;44700;-84
2022/05/17 11:20:15;;;;;;;;;2.80;2.80;;;;;29.02;46.19;101472.28;6158705;23;45171;-84
2022/05/17 11:23:28;;;;;;;;;2.80;2.80;;;;;28.84;45.94;101468.19;6132776;23;45374;-85
2022/05/17 11:26:18;;;;;;;;;2.00;2.00;;;;;28.82;49.26;101459.34;6139229;23;44823;-84
2022/05/17 11:29:22;;;;;;;;;2.20;2.20;;;;;28.97;47.43;101455.63;6150956;23;45364;-85
2022/05/17 11:32:15;;;;;;;;;0.40;0.40;;;;;29.07;46.99;101459.66;6140788;23;45023;-84
2022/05/17 11:34:43;;;;;;;;;3.60;3.20;;;;;29.07;45.87;101456.06;6151563;23;45246;-84
2022/05/17 11:37:33;;;;;;;;;3.60;3.60;;;;;29.09;46.50;101456.69;6154524;23;44831;-88
2022/05/17 11:40:07;;;;;;;;;2.60;2.00;;;;;28.97;44.43;101450.16;6109465;23;44846;-87
2022/05/17 11:45:49;;;;;;;;;2.00;2.00;;;;;29.23;44.61;101442.00;6160055;23;45766;-88
2022/05/17 11:48:21;;;;;;;;;2.00;2.00;;;;;29.19;44.83;101436.09;6137649;23;44692;-86
2022/05/17 11:50:57;;;;;;;;;2.00;1.20;;;;;29.15;44.14;101431.22;6258624;22;45247;-87
2022/05/17 11:53:22;;;;;;;;;1.00;1.00;;;;;29.26;43.07;101436.09;6258455;22;44962;-86